sensor_id;sensor_type;location;lat;lon;timestamp;P1;durP1;ratioP1;P2;durP2;ratioP2
43580;SDS011;29175;51.030;4.606;2023-05-16T00:00:17;32.33;;;6.05;;
43580;SDS011;29175;51.030;4.606;2023-05-16T00:02:43;20.10;;;4.97;;
43580;SDS011;29175;51.030;4.606;2023-05-16T00:05:08;23.20;;;4.18;;
43580;SDS011;29175;51.030;4.606;2023-05-16T00:07:44;23.90;;;4.70;;
43580;SDS011;29175;51.030;4.606;2023-05-16T00:10:11;35.10;;;4.95;;
43580;SDS011;29175;51.030;4.606;2023-05-16T00:12:38;30.90;;;5.32;;
43580;SDS011;29175;51.030;4.606;2023-05-16T00:15:08;25.38;;;5.35;;
43580;SDS011;29175;51.030;4.606;2023-05-16T00:17:36;20.50;;;4.47;;
43580;SDS011;29175;51.030;4.606;2023-05-16T00:20:02;18.13;;;4.43;;
43580;SDS011;29175;51.030;4.606;2023-05-16T00:22:35;22.73;;;4.45;;
43580;SDS011;29175;51.030;4.606;2023-05-16T00:25:01;22.50;;;5.43;;
43580;SDS011;29175;51.030;4.606;2023-05-16T00:27:28;24.40;;;4.97;;
43580;SDS011;29175;51.030;4.606;2023-05-16T00:29:54;21.80;;;4.82;;
43580;SDS011;29175;51.030;4.606;2023-05-16T00:32:20;21.27;;;5.13;;
43580;SDS011;29175;51.030;4.606;2023-05-16T00:34:46;29.40;;;4.82;;
43580;SDS011;29175;51.030;4.606;2023-05-16T00:37:12;26.98;;;4.40;;
43580;SDS011;29175;51.030;4.606;2023-05-16T00:39:38;31.52;;;5.35;;
43580;SDS011;29175;51.030;4.606;2023-05-16T00:42:04;16.33;;;4.00;;
43580;SDS011;29175;51.030;4.606;2023-05-16T00:44:30;19.15;;;4.28;;
43580;SDS011;29175;51.030;4.606;2023-05-16T00:46:56;23.95;;;4.50;;
43580;SDS011;29175;51.030;4.606;2023-05-16T00:49:24;20.70;;;4.55;;
43580;SDS011;29175;51.030;4.606;2023-05-16T00:51:50;16.83;;;4.57;;
43580;SDS011;29175;51.030;4.606;2023-05-16T00:54:17;26.85;;;4.20;;
43580;SDS011;29175;51.030;4.606;2023-05-16T00:56:46;20.30;;;4.90;;
43580;SDS011;29175;51.030;4.606;2023-05-16T00:59:11;17.17;;;4.30;;
43580;SDS011;29175;51.030;4.606;2023-05-16T01:01:37;28.15;;;5.32;;
43580;SDS011;29175;51.030;4.606;2023-05-16T01:04:05;15.98;;;4.03;;
43580;SDS011;29175;51.030;4.606;2023-05-16T01:06:32;16.80;;;4.40;;
43580;SDS011;29175;51.030;4.606;2023-05-16T01:08:58;22.40;;;5.53;;
43580;SDS011;29175;51.030;4.606;2023-05-16T01:11:31;29.85;;;4.70;;
43580;SDS011;29175;51.030;4.606;2023-05-16T01:19:46;17.95;;;4.13;;
43580;SDS011;29175;51.030;4.606;2023-05-16T01:25:26;17.45;;;4.43;;
43580;SDS011;29175;51.030;4.606;2023-05-16T01:28:10;21.30;;;4.65;;
43580;SDS011;29175;51.030;4.606;2023-05-16T01:30:38;22.90;;;4.97;;
43580;SDS011;29175;51.030;4.606;2023-05-16T01:33:05;23.20;;;4.65;;
43580;SDS011;29175;51.030;4.606;2023-05-16T01:35:31;18.75;;;4.45;;
43580;SDS011;29175;51.030;4.606;2023-05-16T01:38:06;22.42;;;4.35;;
43580;SDS011;29175;51.030;4.606;2023-05-16T01:41:24;17.25;;;4.13;;
43580;SDS011;29175;51.030;4.606;2023-05-16T01:43:58;20.75;;;4.57;;
43580;SDS011;29175;51.030;4.606;2023-05-16T01:46:30;37.10;;;5.15;;
43580;SDS011;29175;51.030;4.606;2023-05-16T01:49:06;20.20;;;4.63;;
43580;SDS011;29175;51.030;4.606;2023-05-16T01:51:51;20.20;;;4.80;;
43580;SDS011;29175;51.030;4.606;2023-05-16T01:54:20;26.58;;;4.60;;
43580;SDS011;29175;51.030;4.606;2023-05-16T01:56:53;21.75;;;4.57;;
43580;SDS011;29175;51.030;4.606;2023-05-16T01:59:20;20.98;;;4.07;;
43580;SDS011;29175;51.030;4.606;2023-05-16T02:01:47;23.50;;;4.95;;
43580;SDS011;29175;51.030;4.606;2023-05-16T02:04:13;23.75;;;4.93;;
43580;SDS011;29175;51.030;4.606;2023-05-16T02:06:40;20.20;;;5.03;;
43580;SDS011;29175;51.030;4.606;2023-05-16T02:09:06;26.58;;;5.05;;
43580;SDS011;29175;51.030;4.606;2023-05-16T02:11:32;31.42;;;4.85;;
43580;SDS011;29175;51.030;4.606;2023-05-16T02:13:58;23.67;;;4.40;;
43580;SDS011;29175;51.030;4.606;2023-05-16T02:16:24;17.15;;;4.55;;
43580;SDS011;29175;51.030;4.606;2023-05-16T02:18:49;30.48;;;6.18;;
43580;SDS011;29175;51.030;4.606;2023-05-16T02:21:15;24.73;;;4.22;;
43580;SDS011;29175;51.030;4.606;2023-05-16T02:23:41;18.55;;;4.38;;
43580;SDS011;29175;51.030;4.606;2023-05-16T02:26:07;21.98;;;5.47;;
43580;SDS011;29175;51.030;4.606;2023-05-16T02:28:33;20.10;;;4.22;;
43580;SDS011;29175;51.030;4.606;2023-05-16T02:30:59;10.02;;;3.38;;
43580;SDS011;29175;51.030;4.606;2023-05-16T02:33:25;16.63;;;4.53;;
43580;SDS011;29175;51.030;4.606;2023-05-16T02:35:52;19.30;;;4.28;;
43580;SDS011;29175;51.030;4.606;2023-05-16T02:38:19;21.73;;;4.43;;
43580;SDS011;29175;51.030;4.606;2023-05-16T02:40:47;33.03;;;4.90;;
43580;SDS011;29175;51.030;4.606;2023-05-16T02:43:13;20.10;;;4.30;;
43580;SDS011;29175;51.030;4.606;2023-05-16T02:45:39;39.53;;;4.82;;
43580;SDS011;29175;51.030;4.606;2023-05-16T02:48:05;21.20;;;4.55;;
43580;SDS011;29175;51.030;4.606;2023-05-16T02:50:31;24.70;;;3.85;;
43580;SDS011;29175;51.030;4.606;2023-05-16T02:52:58;21.55;;;4.70;;
43580;SDS011;29175;51.030;4.606;2023-05-16T02:55:26;24.27;;;4.43;;
43580;SDS011;29175;51.030;4.606;2023-05-16T02:57:52;23.40;;;4.70;;
43580;SDS011;29175;51.030;4.606;2023-05-16T03:00:19;37.65;;;4.32;;
43580;SDS011;29175;51.030;4.606;2023-05-16T03:02:45;29.05;;;5.10;;
43580;SDS011;29175;51.030;4.606;2023-05-16T03:05:11;26.80;;;4.50;;
43580;SDS011;29175;51.030;4.606;2023-05-16T03:07:37;21.42;;;5.00;;
43580;SDS011;29175;51.030;4.606;2023-05-16T03:10:03;26.35;;;5.15;;
43580;SDS011;29175;51.030;4.606;2023-05-16T03:12:30;17.58;;;4.40;;
43580;SDS011;29175;51.030;4.606;2023-05-16T03:14:55;25.08;;;6.18;;
43580;SDS011;29175;51.030;4.606;2023-05-16T03:17:21;15.00;;;4.00;;
43580;SDS011;29175;51.030;4.606;2023-05-16T03:19:47;13.38;;;4.38;;
43580;SDS011;29175;51.030;4.606;2023-05-16T03:22:13;16.80;;;4.38;;
43580;SDS011;29175;51.030;4.606;2023-05-16T03:24:39;27.02;;;4.70;;
43580;SDS011;29175;51.030;4.606;2023-05-16T03:27:04;19.05;;;4.35;;
43580;SDS011;29175;51.030;4.606;2023-05-16T03:29:30;19.10;;;4.68;;
43580;SDS011;29175;51.030;4.606;2023-05-16T03:31:56;31.52;;;4.43;;
43580;SDS011;29175;51.030;4.606;2023-05-16T03:34:22;21.73;;;4.13;;
43580;SDS011;29175;51.030;4.606;2023-05-16T03:36:48;25.77;;;4.80;;
43580;SDS011;29175;51.030;4.606;2023-05-16T03:39:15;15.52;;;4.28;;
43580;SDS011;29175;51.030;4.606;2023-05-16T03:41:41;23.65;;;4.07;;
43580;SDS011;29175;51.030;4.606;2023-05-16T03:44:07;13.60;;;3.63;;
43580;SDS011;29175;51.030;4.606;2023-05-16T03:46:33;16.90;;;4.15;;
43580;SDS011;29175;51.030;4.606;2023-05-16T03:48:59;20.80;;;4.65;;
43580;SDS011;29175;51.030;4.606;2023-05-16T03:51:25;17.00;;;4.47;;
43580;SDS011;29175;51.030;4.606;2023-05-16T03:53:52;22.67;;;4.50;;
43580;SDS011;29175;51.030;4.606;2023-05-16T03:56:19;18.55;;;4.45;;
43580;SDS011;29175;51.030;4.606;2023-05-16T03:58:46;21.60;;;4.13;;
43580;SDS011;29175;51.030;4.606;2023-05-16T04:01:12;14.05;;;4.72;;
43580;SDS011;29175;51.030;4.606;2023-05-16T04:03:38;16.92;;;3.78;;
43580;SDS011;29175;51.030;4.606;2023-05-16T04:06:04;16.55;;;4.28;;
43580;SDS011;29175;51.030;4.606;2023-05-16T04:08:30;29.25;;;4.15;;
43580;SDS011;29175;51.030;4.606;2023-05-16T04:10:56;18.13;;;4.25;;
43580;SDS011;29175;51.030;4.606;2023-05-16T04:13:22;28.42;;;5.05;;
43580;SDS011;29175;51.030;4.606;2023-05-16T04:15:47;13.77;;;4.25;;
43580;SDS011;29175;51.030;4.606;2023-05-16T04:18:13;16.00;;;4.18;;
43580;SDS011;29175;51.030;4.606;2023-05-16T04:20:40;21.05;;;4.47;;
43580;SDS011;29175;51.030;4.606;2023-05-16T04:23:07;14.93;;;4.38;;
43580;SDS011;29175;51.030;4.606;2023-05-16T04:25:35;16.92;;;5.13;;
43580;SDS011;29175;51.030;4.606;2023-05-16T04:28:01;29.35;;;5.22;;
43580;SDS011;29175;51.030;4.606;2023-05-16T04:30:27;17.10;;;4.32;;
43580;SDS011;29175;51.030;4.606;2023-05-16T04:32:52;17.40;;;3.97;;
43580;SDS011;29175;51.030;4.606;2023-05-16T04:35:18;25.40;;;4.80;;
43580;SDS011;29175;51.030;4.606;2023-05-16T04:37:45;18.35;;;4.65;;
43580;SDS011;29175;51.030;4.606;2023-05-16T04:40:11;12.63;;;4.03;;
43580;SDS011;29175;51.030;4.606;2023-05-16T04:42:37;18.67;;;4.70;;
43580;SDS011;29175;51.030;4.606;2023-05-16T04:45:03;19.25;;;4.45;;
43580;SDS011;29175;51.030;4.606;2023-05-16T04:47:30;23.88;;;4.57;;
43580;SDS011;29175;51.030;4.606;2023-05-16T04:49:56;22.63;;;4.63;;
43580;SDS011;29175;51.030;4.606;2023-05-16T04:52:22;15.27;;;4.60;;
43580;SDS011;29175;51.030;4.606;2023-05-16T04:54:49;18.60;;;4.82;;
43580;SDS011;29175;51.030;4.606;2023-05-16T04:57:16;28.38;;;5.40;;
43580;SDS011;29175;51.030;4.606;2023-05-16T04:59:42;20.27;;;4.65;;
43580;SDS011;29175;51.030;4.606;2023-05-16T05:02:08;14.73;;;4.43;;
43580;SDS011;29175;51.030;4.606;2023-05-16T05:04:33;17.98;;;4.97;;
43580;SDS011;29175;51.030;4.606;2023-05-16T05:07:00;18.00;;;3.97;;
43580;SDS011;29175;51.030;4.606;2023-05-16T05:09:25;27.88;;;4.60;;
43580;SDS011;29175;51.030;4.606;2023-05-16T05:11:51;13.57;;;3.72;;
43580;SDS011;29175;51.030;4.606;2023-05-16T05:14:17;22.25;;;4.63;;
43580;SDS011;29175;51.030;4.606;2023-05-16T05:16:42;17.50;;;3.47;;
43580;SDS011;29175;51.030;4.606;2023-05-16T05:19:08;12.05;;;3.35;;
43580;SDS011;29175;51.030;4.606;2023-05-16T05:21:34;18.77;;;3.85;;
43580;SDS011;29175;51.030;4.606;2023-05-16T05:24:00;14.13;;;3.85;;
43580;SDS011;29175;51.030;4.606;2023-05-16T05:26:25;24.95;;;3.97;;
43580;SDS011;29175;51.030;4.606;2023-05-16T05:28:52;18.33;;;3.47;;
43580;SDS011;29175;51.030;4.606;2023-05-16T05:31:18;18.63;;;3.95;;
43580;SDS011;29175;51.030;4.606;2023-05-16T05:33:44;17.60;;;3.47;;
43580;SDS011;29175;51.030;4.606;2023-05-16T05:36:09;21.67;;;3.17;;
43580;SDS011;29175;51.030;4.606;2023-05-16T05:38:35;14.77;;;2.65;;
43580;SDS011;29175;51.030;4.606;2023-05-16T05:41:01;17.25;;;3.42;;
43580;SDS011;29175;51.030;4.606;2023-05-16T05:43:26;10.27;;;2.78;;
43580;SDS011;29175;51.030;4.606;2023-05-16T05:45:52;18.58;;;3.28;;
43580;SDS011;29175;51.030;4.606;2023-05-16T05:48:19;8.63;;;3.22;;
43580;SDS011;29175;51.030;4.606;2023-05-16T05:50:45;21.10;;;3.53;;
43580;SDS011;29175;51.030;4.606;2023-05-16T05:53:11;20.70;;;3.65;;
43580;SDS011;29175;51.030;4.606;2023-05-16T05:55:37;19.98;;;3.85;;
43580;SDS011;29175;51.030;4.606;2023-05-16T05:58:05;12.82;;;3.15;;
43580;SDS011;29175;51.030;4.606;2023-05-16T06:00:31;16.30;;;3.38;;
43580;SDS011;29175;51.030;4.606;2023-05-16T06:02:56;11.70;;;3.33;;
43580;SDS011;29175;51.030;4.606;2023-05-16T06:05:22;14.20;;;3.30;;
43580;SDS011;29175;51.030;4.606;2023-05-16T06:07:48;11.20;;;3.30;;
43580;SDS011;29175;51.030;4.606;2023-05-16T06:10:14;11.63;;;3.25;;
43580;SDS011;29175;51.030;4.606;2023-05-16T06:12:40;26.27;;;3.65;;
43580;SDS011;29175;51.030;4.606;2023-05-16T06:15:05;18.77;;;3.58;;
43580;SDS011;29175;51.030;4.606;2023-05-16T06:17:32;13.02;;;2.85;;
43580;SDS011;29175;51.030;4.606;2023-05-16T06:19:57;8.80;;;2.50;;
43580;SDS011;29175;51.030;4.606;2023-05-16T06:22:23;13.80;;;2.65;;
43580;SDS011;29175;51.030;4.606;2023-05-16T06:24:49;14.50;;;3.75;;
43580;SDS011;29175;51.030;4.606;2023-05-16T06:27:14;20.17;;;3.95;;
43580;SDS011;29175;51.030;4.606;2023-05-16T06:29:40;19.40;;;3.22;;
43580;SDS011;29175;51.030;4.606;2023-05-16T06:32:06;16.20;;;2.65;;
43580;SDS011;29175;51.030;4.606;2023-05-16T06:34:32;15.02;;;2.50;;
43580;SDS011;29175;51.030;4.606;2023-05-16T06:36:57;14.82;;;3.20;;
43580;SDS011;29175;51.030;4.606;2023-05-16T06:39:23;7.35;;;2.83;;
43580;SDS011;29175;51.030;4.606;2023-05-16T06:41:50;10.07;;;3.22;;
43580;SDS011;29175;51.030;4.606;2023-05-16T06:44:15;6.53;;;2.03;;
43580;SDS011;29175;51.030;4.606;2023-05-16T06:46:41;12.60;;;2.40;;
43580;SDS011;29175;51.030;4.606;2023-05-16T06:49:07;13.57;;;2.85;;
43580;SDS011;29175;51.030;4.606;2023-05-16T06:51:33;18.90;;;3.75;;
43580;SDS011;29175;51.030;4.606;2023-05-16T06:53:58;9.35;;;2.00;;
43580;SDS011;29175;51.030;4.606;2023-05-16T06:56:24;14.05;;;2.30;;
43580;SDS011;29175;51.030;4.606;2023-05-16T06:58:49;10.00;;;2.17;;
43580;SDS011;29175;51.030;4.606;2023-05-16T07:01:15;9.05;;;2.40;;
43580;SDS011;29175;51.030;4.606;2023-05-16T07:03:41;6.22;;;1.70;;
43580;SDS011;29175;51.030;4.606;2023-05-16T07:06:07;6.43;;;2.35;;
43580;SDS011;29175;51.030;4.606;2023-05-16T07:08:33;13.65;;;2.03;;
43580;SDS011;29175;51.030;4.606;2023-05-16T07:11:00;10.10;;;2.17;;
43580;SDS011;29175;51.030;4.606;2023-05-16T07:13:25;7.68;;;2.00;;
43580;SDS011;29175;51.030;4.606;2023-05-16T07:15:51;12.32;;;2.00;;
43580;SDS011;29175;51.030;4.606;2023-05-16T07:18:18;7.43;;;2.15;;
43580;SDS011;29175;51.030;4.606;2023-05-16T07:20:43;10.23;;;2.03;;
43580;SDS011;29175;51.030;4.606;2023-05-16T07:23:10;13.95;;;2.28;;
43580;SDS011;29175;51.030;4.606;2023-05-16T07:25:35;9.25;;;1.73;;
43580;SDS011;29175;51.030;4.606;2023-05-16T07:28:01;6.47;;;1.80;;
43580;SDS011;29175;51.030;4.606;2023-05-16T07:30:27;7.57;;;2.15;;
43580;SDS011;29175;51.030;4.606;2023-05-16T07:32:53;9.38;;;2.63;;
43580;SDS011;29175;51.030;4.606;2023-05-16T07:35:19;8.57;;;2.35;;
43580;SDS011;29175;51.030;4.606;2023-05-16T07:37:44;8.93;;;2.30;;
43580;SDS011;29175;51.030;4.606;2023-05-16T07:40:10;10.40;;;2.22;;
43580;SDS011;29175;51.030;4.606;2023-05-16T07:42:36;11.38;;;2.83;;
43580;SDS011;29175;51.030;4.606;2023-05-16T07:45:02;7.25;;;2.15;;
43580;SDS011;29175;51.030;4.606;2023-05-16T07:47:29;7.78;;;2.08;;
43580;SDS011;29175;51.030;4.606;2023-05-16T07:49:54;7.32;;;2.05;;
43580;SDS011;29175;51.030;4.606;2023-05-16T07:52:20;10.52;;;2.70;;
43580;SDS011;29175;51.030;4.606;2023-05-16T07:54:46;8.73;;;2.30;;
43580;SDS011;29175;51.030;4.606;2023-05-16T07:57:12;10.25;;;2.33;;
43580;SDS011;29175;51.030;4.606;2023-05-16T07:59:39;9.38;;;2.25;;
43580;SDS011;29175;51.030;4.606;2023-05-16T08:02:05;9.82;;;2.33;;
43580;SDS011;29175;51.030;4.606;2023-05-16T08:04:31;6.47;;;2.35;;
43580;SDS011;29175;51.030;4.606;2023-05-16T08:06:56;4.13;;;2.22;;
43580;SDS011;29175;51.030;4.606;2023-05-16T08:09:22;9.27;;;2.20;;
43580;SDS011;29175;51.030;4.606;2023-05-16T08:11:48;8.70;;;2.33;;
43580;SDS011;29175;51.030;4.606;2023-05-16T08:14:13;10.77;;;2.25;;
43580;SDS011;29175;51.030;4.606;2023-05-16T08:16:39;8.77;;;2.03;;
43580;SDS011;29175;51.030;4.606;2023-05-16T08:19:05;8.32;;;2.22;;
43580;SDS011;29175;51.030;4.606;2023-05-16T08:21:31;9.52;;;1.83;;
43580;SDS011;29175;51.030;4.606;2023-05-16T08:23:57;8.82;;;1.85;;
43580;SDS011;29175;51.030;4.606;2023-05-16T08:26:22;7.82;;;2.30;;
43580;SDS011;29175;51.030;4.606;2023-05-16T08:28:49;9.55;;;2.10;;
43580;SDS011;29175;51.030;4.606;2023-05-16T08:31:14;7.22;;;1.90;;
43580;SDS011;29175;51.030;4.606;2023-05-16T08:33:40;9.60;;;1.92;;
43580;SDS011;29175;51.030;4.606;2023-05-16T08:36:08;9.10;;;1.75;;
43580;SDS011;29175;51.030;4.606;2023-05-16T08:38:34;8.25;;;2.53;;
43580;SDS011;29175;51.030;4.606;2023-05-16T08:41:00;14.43;;;2.17;;
43580;SDS011;29175;51.030;4.606;2023-05-16T08:43:25;7.00;;;2.05;;
43580;SDS011;29175;51.030;4.606;2023-05-16T08:45:52;8.43;;;2.00;;
43580;SDS011;29175;51.030;4.606;2023-05-16T08:48:18;5.45;;;1.60;;
43580;SDS011;29175;51.030;4.606;2023-05-16T08:50:47;7.95;;;1.63;;
43580;SDS011;29175;51.030;4.606;2023-05-16T08:53:13;9.48;;;1.95;;
43580;SDS011;29175;51.030;4.606;2023-05-16T08:55:42;5.65;;;1.92;;
43580;SDS011;29175;51.030;4.606;2023-05-16T08:58:09;5.88;;;2.05;;
43580;SDS011;29175;51.030;4.606;2023-05-16T09:00:36;7.25;;;1.65;;
43580;SDS011;29175;51.030;4.606;2023-05-16T09:03:03;8.60;;;1.75;;
43580;SDS011;29175;51.030;4.606;2023-05-16T09:05:30;9.70;;;1.40;;
43580;SDS011;29175;51.030;4.606;2023-05-16T09:07:56;6.95;;;1.35;;
43580;SDS011;29175;51.030;4.606;2023-05-16T09:10:21;5.30;;;1.48;;
43580;SDS011;29175;51.030;4.606;2023-05-16T09:12:47;7.88;;;1.88;;
43580;SDS011;29175;51.030;4.606;2023-05-16T09:15:13;4.95;;;1.55;;
43580;SDS011;29175;51.030;4.606;2023-05-16T09:17:41;2.55;;;1.35;;
43580;SDS011;29175;51.030;4.606;2023-05-16T09:22:34;7.72;;;1.65;;
43580;SDS011;29175;51.030;4.606;2023-05-16T09:25:00;5.50;;;1.30;;
43580;SDS011;29175;51.030;4.606;2023-05-16T09:27:26;7.95;;;1.50;;
43580;SDS011;29175;51.030;4.606;2023-05-16T09:29:55;3.85;;;1.33;;
43580;SDS011;29175;51.030;4.606;2023-05-16T09:32:23;4.60;;;1.40;;
43580;SDS011;29175;51.030;4.606;2023-05-16T09:34:52;6.88;;;1.27;;
43580;SDS011;29175;51.030;4.606;2023-05-16T09:37:18;6.07;;;1.33;;
43580;SDS011;29175;51.030;4.606;2023-05-16T09:39:53;7.93;;;1.50;;
43580;SDS011;29175;51.030;4.606;2023-05-16T09:42:19;7.57;;;1.35;;
43580;SDS011;29175;51.030;4.606;2023-05-16T09:44:50;7.25;;;1.70;;
43580;SDS011;29175;51.030;4.606;2023-05-16T09:47:18;4.05;;;1.38;;
43580;SDS011;29175;51.030;4.606;2023-05-16T09:49:45;5.35;;;1.73;;
43580;SDS011;29175;51.030;4.606;2023-05-16T09:52:13;4.30;;;1.30;;
43580;SDS011;29175;51.030;4.606;2023-05-16T09:54:39;8.18;;;1.45;;
43580;SDS011;29175;51.030;4.606;2023-05-16T09:57:05;7.40;;;1.40;;
43580;SDS011;29175;51.030;4.606;2023-05-16T09:59:35;5.13;;;1.23;;
43580;SDS011;29175;51.030;4.606;2023-05-16T10:02:01;4.78;;;1.05;;
43580;SDS011;29175;51.030;4.606;2023-05-16T10:04:29;3.28;;;1.30;;
43580;SDS011;29175;51.030;4.606;2023-05-16T10:06:55;4.43;;;1.30;;
43580;SDS011;29175;51.030;4.606;2023-05-16T10:09:22;7.15;;;1.35;;
43580;SDS011;29175;51.030;4.606;2023-05-16T10:11:48;9.00;;;1.58;;
43580;SDS011;29175;51.030;4.606;2023-05-16T10:14:17;4.05;;;1.20;;
43580;SDS011;29175;51.030;4.606;2023-05-16T10:16:44;5.28;;;1.50;;
43580;SDS011;29175;51.030;4.606;2023-05-16T10:19:19;6.15;;;1.70;;
43580;SDS011;29175;51.030;4.606;2023-05-16T10:21:48;5.60;;;1.80;;
43580;SDS011;29175;51.030;4.606;2023-05-16T10:24:18;4.93;;;1.40;;
43580;SDS011;29175;51.030;4.606;2023-05-16T10:26:48;4.97;;;1.42;;
43580;SDS011;29175;51.030;4.606;2023-05-16T10:29:15;6.40;;;1.50;;
43580;SDS011;29175;51.030;4.606;2023-05-16T10:31:42;6.63;;;1.45;;
43580;SDS011;29175;51.030;4.606;2023-05-16T10:34:08;3.17;;;1.20;;
43580;SDS011;29175;51.030;4.606;2023-05-16T10:36:35;3.78;;;1.30;;
43580;SDS011;29175;51.030;4.606;2023-05-16T10:39:01;3.63;;;1.30;;
43580;SDS011;29175;51.030;4.606;2023-05-16T10:41:28;4.72;;;1.73;;
43580;SDS011;29175;51.030;4.606;2023-05-16T10:43:57;6.82;;;1.42;;
43580;SDS011;29175;51.030;4.606;2023-05-16T10:48:50;5.93;;;1.10;;
43580;SDS011;29175;51.030;4.606;2023-05-16T10:53:51;5.10;;;1.30;;
43580;SDS011;29175;51.030;4.606;2023-05-16T10:56:22;8.43;;;1.52;;
43580;SDS011;29175;51.030;4.606;2023-05-16T10:58:48;8.43;;;1.52;;
43580;SDS011;29175;51.030;4.606;2023-05-16T11:01:25;9.68;;;1.50;;
43580;SDS011;29175;51.030;4.606;2023-05-16T11:06:22;8.53;;;1.70;;
43580;SDS011;29175;51.030;4.606;2023-05-16T11:09:05;6.93;;;1.75;;
43580;SDS011;29175;51.030;4.606;2023-05-16T11:17:01;9.00;;;1.65;;
43580;SDS011;29175;51.030;4.606;2023-05-16T11:19:38;3.95;;;1.38;;
43580;SDS011;29175;51.030;4.606;2023-05-16T11:24:44;7.00;;;1.20;;
43580;SDS011;29175;51.030;4.606;2023-05-16T11:27:13;2.72;;;1.33;;
43580;SDS011;29175;51.030;4.606;2023-05-16T11:29:46;7.05;;;1.45;;
43580;SDS011;29175;51.030;4.606;2023-05-16T11:32:12;5.70;;;1.27;;
43580;SDS011;29175;51.030;4.606;2023-05-16T11:34:38;4.90;;;1.70;;
43580;SDS011;29175;51.030;4.606;2023-05-16T11:37:05;4.57;;;1.50;;
43580;SDS011;29175;51.030;4.606;2023-05-16T11:39:35;5.53;;;1.30;;
43580;SDS011;29175;51.030;4.606;2023-05-16T11:42:01;6.00;;;1.65;;
43580;SDS011;29175;51.030;4.606;2023-05-16T11:44:27;6.00;;;1.48;;
43580;SDS011;29175;51.030;4.606;2023-05-16T11:46:53;7.88;;;1.88;;
43580;SDS011;29175;51.030;4.606;2023-05-16T11:49:18;5.95;;;1.50;;
43580;SDS011;29175;51.030;4.606;2023-05-16T11:51:44;7.68;;;1.75;;
43580;SDS011;29175;51.030;4.606;2023-05-16T11:54:10;12.65;;;1.80;;
43580;SDS011;29175;51.030;4.606;2023-05-16T11:56:39;8.07;;;1.63;;
43580;SDS011;29175;51.030;4.606;2023-05-16T11:59:06;4.93;;;1.80;;
43580;SDS011;29175;51.030;4.606;2023-05-16T12:01:33;8.07;;;2.28;;
43580;SDS011;29175;51.030;4.606;2023-05-16T12:04:01;4.13;;;1.40;;
43580;SDS011;29175;51.030;4.606;2023-05-16T12:06:32;6.20;;;1.55;;
43580;SDS011;29175;51.030;4.606;2023-05-16T12:08:57;6.22;;;1.40;;
43580;SDS011;29175;51.030;4.606;2023-05-16T12:11:23;11.05;;;1.50;;
43580;SDS011;29175;51.030;4.606;2023-05-16T12:13:49;9.60;;;1.88;;
43580;SDS011;29175;51.030;4.606;2023-05-16T12:16:16;7.15;;;2.08;;
43580;SDS011;29175;51.030;4.606;2023-05-16T12:18:42;6.65;;;1.70;;
43580;SDS011;29175;51.030;4.606;2023-05-16T12:21:09;6.82;;;1.95;;
43580;SDS011;29175;51.030;4.606;2023-05-16T12:23:35;7.90;;;1.80;;
43580;SDS011;29175;51.030;4.606;2023-05-16T12:26:01;5.60;;;1.70;;
43580;SDS011;29175;51.030;4.606;2023-05-16T12:28:32;13.13;;;1.65;;
43580;SDS011;29175;51.030;4.606;2023-05-16T12:30:58;3.67;;;1.30;;
43580;SDS011;29175;51.030;4.606;2023-05-16T12:33:24;3.60;;;1.38;;
43580;SDS011;29175;51.030;4.606;2023-05-16T12:35:51;14.77;;;1.80;;
43580;SDS011;29175;51.030;4.606;2023-05-16T12:38:18;5.72;;;1.58;;
43580;SDS011;29175;51.030;4.606;2023-05-16T12:40:45;7.13;;;1.60;;
43580;SDS011;29175;51.030;4.606;2023-05-16T12:43:15;5.40;;;1.70;;
43580;SDS011;29175;51.030;4.606;2023-05-16T12:48:16;2.67;;;1.15;;
43580;SDS011;29175;51.030;4.606;2023-05-16T12:50:42;5.50;;;1.33;;
43580;SDS011;29175;51.030;4.606;2023-05-16T12:53:14;5.53;;;1.55;;
43580;SDS011;29175;51.030;4.606;2023-05-16T12:55:41;3.33;;;1.58;;
43580;SDS011;29175;51.030;4.606;2023-05-16T12:58:08;5.55;;;1.40;;
43580;SDS011;29175;51.030;4.606;2023-05-16T13:00:35;9.48;;;1.70;;
43580;SDS011;29175;51.030;4.606;2023-05-16T13:03:01;7.03;;;1.65;;
43580;SDS011;29175;51.030;4.606;2023-05-16T13:05:28;5.78;;;1.60;;
43580;SDS011;29175;51.030;4.606;2023-05-16T13:07:54;10.05;;;1.73;;
43580;SDS011;29175;51.030;4.606;2023-05-16T13:10:20;7.00;;;1.88;;
43580;SDS011;29175;51.030;4.606;2023-05-16T13:12:46;3.80;;;1.38;;
43580;SDS011;29175;51.030;4.606;2023-05-16T13:15:11;5.82;;;1.48;;
43580;SDS011;29175;51.030;4.606;2023-05-16T13:17:38;5.18;;;1.55;;
43580;SDS011;29175;51.030;4.606;2023-05-16T13:20:07;5.33;;;1.47;;
43580;SDS011;29175;51.030;4.606;2023-05-16T13:22:33;8.20;;;1.65;;
43580;SDS011;29175;51.030;4.606;2023-05-16T13:25:00;4.75;;;1.30;;
43580;SDS011;29175;51.030;4.606;2023-05-16T13:27:26;7.30;;;1.60;;
43580;SDS011;29175;51.030;4.606;2023-05-16T13:29:51;12.02;;;1.85;;
43580;SDS011;29175;51.030;4.606;2023-05-16T13:32:17;6.10;;;1.73;;
43580;SDS011;29175;51.030;4.606;2023-05-16T13:34:43;12.57;;;1.98;;
43580;SDS011;29175;51.030;4.606;2023-05-16T13:37:09;7.55;;;2.00;;
43580;SDS011;29175;51.030;4.606;2023-05-16T13:39:35;10.32;;;2.08;;
43580;SDS011;29175;51.030;4.606;2023-05-16T13:42:00;7.57;;;1.60;;
43580;SDS011;29175;51.030;4.606;2023-05-16T13:44:27;6.70;;;1.70;;
43580;SDS011;29175;51.030;4.606;2023-05-16T13:46:53;9.73;;;1.95;;
43580;SDS011;29175;51.030;4.606;2023-05-16T13:49:20;7.57;;;1.63;;
43580;SDS011;29175;51.030;4.606;2023-05-16T13:51:46;6.53;;;1.92;;
43580;SDS011;29175;51.030;4.606;2023-05-16T13:54:12;8.10;;;1.80;;
43580;SDS011;29175;51.030;4.606;2023-05-16T13:56:37;6.38;;;1.50;;
43580;SDS011;29175;51.030;4.606;2023-05-16T13:59:03;6.47;;;1.77;;
43580;SDS011;29175;51.030;4.606;2023-05-16T14:01:29;11.98;;;1.88;;
43580;SDS011;29175;51.030;4.606;2023-05-16T14:03:55;7.85;;;1.80;;
43580;SDS011;29175;51.030;4.606;2023-05-16T14:06:21;12.15;;;1.80;;
43580;SDS011;29175;51.030;4.606;2023-05-16T14:08:46;7.32;;;1.77;;
43580;SDS011;29175;51.030;4.606;2023-05-16T14:11:12;6.43;;;1.63;;
43580;SDS011;29175;51.030;4.606;2023-05-16T14:13:38;7.03;;;1.70;;
43580;SDS011;29175;51.030;4.606;2023-05-16T14:16:04;8.85;;;1.48;;
43580;SDS011;29175;51.030;4.606;2023-05-16T14:18:31;10.13;;;2.05;;
43580;SDS011;29175;51.030;4.606;2023-05-16T14:20:57;13.77;;;1.90;;
43580;SDS011;29175;51.030;4.606;2023-05-16T14:23:23;5.25;;;1.60;;
43580;SDS011;29175;51.030;4.606;2023-05-16T14:25:48;6.22;;;1.67;;
43580;SDS011;29175;51.030;4.606;2023-05-16T14:28:15;7.43;;;1.63;;
43580;SDS011;29175;51.030;4.606;2023-05-16T14:30:40;6.32;;;1.83;;
43580;SDS011;29175;51.030;4.606;2023-05-16T14:33:06;8.57;;;1.52;;
43580;SDS011;29175;51.030;4.606;2023-05-16T14:35:32;7.25;;;1.70;;
43580;SDS011;29175;51.030;4.606;2023-05-16T14:37:58;5.82;;;1.50;;
43580;SDS011;29175;51.030;4.606;2023-05-16T14:40:23;4.70;;;1.65;;
43580;SDS011;29175;51.030;4.606;2023-05-16T14:42:49;8.23;;;1.73;;
43580;SDS011;29175;51.030;4.606;2023-05-16T14:45:15;5.55;;;1.52;;
43580;SDS011;29175;51.030;4.606;2023-05-16T14:47:41;5.50;;;1.33;;
43580;SDS011;29175;51.030;4.606;2023-05-16T14:50:07;6.40;;;1.48;;
43580;SDS011;29175;51.030;4.606;2023-05-16T14:52:33;9.55;;;1.52;;
43580;SDS011;29175;51.030;4.606;2023-05-16T14:54:59;6.72;;;1.67;;
43580;SDS011;29175;51.030;4.606;2023-05-16T14:57:25;12.10;;;1.73;;
43580;SDS011;29175;51.030;4.606;2023-05-16T14:59:51;4.97;;;1.60;;
43580;SDS011;29175;51.030;4.606;2023-05-16T15:02:16;5.13;;;1.70;;
43580;SDS011;29175;51.030;4.606;2023-05-16T15:04:42;9.68;;;1.67;;
43580;SDS011;29175;51.030;4.606;2023-05-16T15:07:08;8.45;;;1.85;;